Time;durP1;ratioP1;P1;durP2;ratioP2;P2;SDS_P1;SDS_P2;PMS_P1;PMS_P2;Temp;Humidity;BMP_temperature;BMP_pressure;BME280_temperature;BME280_humidity;BME280_pressure;Samples;Min_cycle;Max_cycle;Signal;HPM_P1;HPM_P2
2024/01/11 00:00:23;;;;;;;12.70;5.63;;;;;-3.20;102565.00;;;;5042323;28;20240;-70
2024/01/11 00:03:10;;;;;;;7.50;4.70;;;;;-3.20;102562.00;;;;5041749;28;20277;-66
2024/01/11 00:05:56;;;;;;;5.80;4.83;;;;;-3.30;102563.00;;;;5042473;28;20237;-70
2024/01/11 00:08:43;;;;;;;8.37;6.27;;;;;-3.20;102549.00;;;;5038470;28;20236;-67
2024/01/11 00:11:30;;;;;;;7.37;5.30;;;;;-3.20;102555.00;;;;5047710;28;20246;-69
2024/01/11 00:14:16;;;;;;;13.43;6.00;;;;;-3.20;102558.00;;;;5044688;28;20709;-69
2024/01/11 00:17:03;;;;;;;14.23;7.40;;;;;-3.20;102552.00;;;;5046046;28;20230;-65
2024/01/11 00:19:50;;;;;;;5.70;5.13;;;;;-3.20;102557.00;;;;5042430;28;20260;-68
2024/01/11 00:22:36;;;;;;;8.87;4.77;;;;;-3.20;102548.00;;;;5044968;28;20303;-69
2024/01/11 00:25:23;;;;;;;8.20;5.43;;;;;-3.30;102560.00;;;;5031272;28;20599;-67
2024/01/11 00:28:10;;;;;;;7.17;5.13;;;;;-3.20;102570.00;;;;5039794;28;20236;-70
2024/01/11 00:30:57;;;;;;;10.70;5.97;;;;;-3.20;102564.00;;;;5039053;28;20239;-68
2024/01/11 00:33:43;;;;;;;7.90;5.20;;;;;-3.30;102558.00;;;;5043751;28;20676;-67
2024/01/11 00:36:29;;;;;;;12.07;6.37;;;;;-3.40;102563.00;;;;5047218;28;20240;-70
2024/01/11 00:39:16;;;;;;;12.13;6.33;;;;;-3.40;102562.00;;;;5038844;28;20324;-69
2024/01/11 00:42:02;;;;;;;7.77;5.27;;;;;-3.40;102557.00;;;;5043223;28;20648;-68
2024/01/11 00:44:50;;;;;;;16.77;6.40;;;;;-3.30;102549.00;;;;5042445;28;20236;-67
2024/01/11 00:47:36;;;;;;;14.77;5.87;;;;;-3.30;102558.00;;;;5043013;28;20275;-69
2024/01/11 00:50:23;;;;;;;13.70;5.90;;;;;-3.40;102554.00;;;;5047688;28;20247;-69
2024/01/11 00:53:10;;;;;;;6.30;4.73;;;;;-3.40;102560.00;;;;5047679;28;20298;-68
2024/01/11 00:55:57;;;;;;;10.50;5.13;;;;;-3.50;102566.00;;;;5046531;28;20231;-66
2024/01/11 00:58:43;;;;;;;7.40;5.63;;;;;-3.40;102565.00;;;;5049433;28;20793;-72
2024/01/11 01:01:31;;;;;;;6.20;4.40;;;;;-3.50;102568.00;;;;5047415;28;20737;-68
2024/01/11 01:04:17;;;;;;;13.37;5.73;;;;;-3.50;102564.00;;;;5048448;28;20323;-71
2024/01/11 01:07:04;;;;;;;9.00;4.17;;;;;-3.40;102551.00;;;;5051801;28;20609;-69
2024/01/11 01:09:50;;;;;;;9.07;5.13;;;;;-3.50;102567.00;;;;5039069;28;20240;-68
2024/01/11 01:12:36;;;;;;;4.93;4.40;;;;;-3.50;102580.00;;;;5043841;28;20240;-68
2024/01/11 01:15:22;;;;;;;10.37;5.30;;;;;-3.50;102569.00;;;;5044967;28;20251;-69
2024/01/11 01:18:10;;;;;;;6.90;5.03;;;;;-3.50;102576.00;;;;5041088;28;20235;-68
2024/01/11 01:20:57;;;;;;;9.23;4.87;;;;;-3.40;102574.00;;;;5041708;28;20291;-69
2024/01/11 01:23:43;;;;;;;9.43;4.90;;;;;-3.40;102568.00;;;;5039875;28;20233;-69
2024/01/11 01:26:29;;;;;;;8.83;4.30;;;;;-3.40;102573.00;;;;5032202;28;20348;-66
2024/01/11 01:29:16;;;;;;;9.73;5.23;;;;;-3.50;102563.00;;;;5043555;28;20318;-69
2024/01/11 01:32:02;;;;;;;7.80;5.67;;;;;-3.40;102555.00;;;;5033401;28;20268;-69
2024/01/11 01:34:49;;;;;;;12.97;5.07;;;;;-3.60;102573.00;;;;5043884;28;20279;-70
2024/01/11 01:37:36;;;;;;;11.53;5.83;;;;;-3.70;102581.00;;;;5038100;28;20352;-69
2024/01/11 01:40:22;;;;;;;5.37;3.83;;;;;-3.90;102571.00;;;;5046074;28;20236;-68
2024/01/11 01:43:09;;;;;;;7.60;5.00;;;;;-3.90;102585.00;;;;5035934;28;20302;-68
2024/01/11 01:45:56;;;;;;;7.80;4.87;;;;;-3.90;102584.00;;;;5043097;28;20252;-66
2024/01/11 01:48:43;;;;;;;3.90;3.60;;;;;-4.00;102573.00;;;;5040991;28;20375;-69
2024/01/11 01:51:32;;;;;;;7.00;5.07;;;;;-4.20;102578.00;;;;5038654;28;20229;-70
2024/01/11 01:54:20;;;;;;;5.77;4.20;;;;;-4.10;102577.00;;;;5046172;28;20602;-67
2024/01/11 01:57:09;;;;;;;5.30;3.97;;;;;-4.20;102578.00;;;;5035757;28;20232;-67
2024/01/11 01:59:56;;;;;;;6.10;4.73;;;;;-4.20;102581.00;;;;5042594;28;20232;-67
2024/01/11 02:02:44;;;;;;;6.80;5.33;;;;;-4.30;102575.00;;;;5032987;28;20814;-70
2024/01/11 02:05:31;;;;;;;10.57;6.50;;;;;-4.30;102576.00;;;;5044751;28;20224;-70
2024/01/11 02:08:23;;;;;;;3.60;3.03;;;;;-4.40;102574.00;;;;5041200;28;20260;-69
2024/01/11 02:11:11;;;;;;;8.47;5.70;;;;;-4.30;102576.00;;;;5038525;28;20228;-68
2024/01/11 02:13:58;;;;;;;6.50;4.80;;;;;-4.40;102571.00;;;;5034998;28;20281;-67
2024/01/11 02:16:44;;;;;;;10.80;4.20;;;;;-4.40;102561.00;;;;5041018;28;20228;-68
2024/01/11 02:19:31;;;;;;;7.40;5.53;;;;;-4.60;102582.00;;;;5038370;28;20236;-69
2024/01/11 02:22:23;;;;;;;3.47;3.17;;;;;-4.50;102578.00;;;;5029626;28;20296;-69
2024/01/11 02:25:10;;;;;;;5.13;4.27;;;;;-4.50;102573.00;;;;5029822;28;20275;-67
2024/01/11 02:27:57;;;;;;;4.20;3.87;;;;;-4.60;102570.00;;;;5043461;28;20243;-67
2024/01/11 02:30:43;;;;;;;7.60;4.90;;;;;-4.70;102583.00;;;;5045902;28;20232;-66
2024/01/11 02:33:30;;;;;;;8.20;5.40;;;;;-4.70;102583.00;;;;5039354;28;20740;-69
2024/01/11 02:36:17;;;;;;;4.87;3.53;;;;;-4.80;102581.00;;;;5036755;28;20320;-70
2024/01/11 02:39:03;;;;;;;7.00;4.50;;;;;-4.80;102585.00;;;;5038425;28;20228;-70
2024/01/11 02:41:52;;;;;;;11.00;4.07;;;;;-4.70;102571.00;;;;5039051;28;20307;-69
2024/01/11 02:44:38;;;;;;;7.40;4.73;;;;;-4.70;102583.00;;;;5031441;28;20231;-69
2024/01/11 02:47:25;;;;;;;13.37;5.83;;;;;-4.80;102586.00;;;;5042645;28;20229;-68
2024/01/11 02:50:12;;;;;;;14.40;6.90;;;;;-4.90;102571.00;;;;5036873;28;20295;-68
2024/01/11 02:52:58;;;;;;;5.30;4.50;;;;;-4.80;102566.00;;;;5043557;28;20275;-68
2024/01/11 02:55:45;;;;;;;6.17;5.57;;;;;-4.80;102563.00;;;;5045618;28;20241;-66
2024/01/11 02:58:32;;;;;;;4.67;4.17;;;;;-4.80;102553.00;;;;5038183;28;20240;-69
2024/01/11 03:01:19;;;;;;;7.43;3.83;;;;;-4.80;102553.00;;;;5039932;28;20256;-70
2024/01/11 03:04:06;;;;;;;5.87;5.37;;;;;-4.90;102553.00;;;;5036469;28;20232;-68
2024/01/11 03:06:52;;;;;;;10.67;5.17;;;;;-5.00;102566.00;;;;5037286;28;20228;-69
2024/01/11 03:09:39;;;;;;;7.03;3.10;;;;;-5.00;102564.00;;;;5039487;28;20232;-68
2024/01/11 03:12:26;;;;;;;4.73;4.27;;;;;-5.00;102561.00;;;;5041810;28;20306;-68
2024/01/11 03:15:13;;;;;;;8.93;5.23;;;;;-5.00;102572.00;;;;5035734;28;20245;-69
2024/01/11 03:18:00;;;;;;;6.97;4.03;;;;;-4.90;102578.00;;;;5037919;28;20233;-67
2024/01/11 03:20:46;;;;;;;4.73;4.27;;;;;-4.90;102582.00;;;;5037187;28;20236;-66
2024/01/11 03:23:32;;;;;;;10.67;6.00;;;;;-5.00;102596.00;;;;5042207;28;20229;-67
2024/01/11 03:26:19;;;;;;;9.47;3.47;;;;;-4.90;102588.00;;;;5036145;28;20232;-64
2024/01/11 03:29:05;;;;;;;7.57;4.60;;;;;-4.80;102578.00;;;;5035241;28;20290;-67
2024/01/11 03:31:53;;;;;;;7.07;5.57;;;;;-4.70;102578.00;;;;5038075;28;20754;-68
2024/01/11 03:34:39;;;;;;;8.50;4.93;;;;;-4.60;102569.00;;;;5035676;28;20264;-68
2024/01/11 03:37:25;;;;;;;10.30;5.37;;;;;-4.70;102579.00;;;;5034905;28;20232;-68
2024/01/11 03:40:12;;;;;;;6.37;3.40;;;;;-4.80;102589.00;;;;5038548;28;20772;-66
2024/01/11 03:42:58;;;;;;;4.80;4.23;;;;;-4.80;102590.00;;;;5040661;28;20295;-69
2024/01/11 03:45:44;;;;;;;7.73;4.73;;;;;-4.70;102590.00;;;;5044664;28;20233;-69
2024/01/11 03:48:33;;;;;;;4.20;3.80;;;;;-4.80;102585.00;;;;5040497;28;20236;-64
2024/01/11 03:51:19;;;;;;;4.47;3.40;;;;;-4.90;102585.00;;;;5036380;28;20232;-67
2024/01/11 03:54:05;;;;;;;10.93;3.60;;;;;-4.90;102584.00;;;;5036509;28;20299;-68
2024/01/11 03:56:51;;;;;;;6.30;5.70;;;;;-4.90;102577.00;;;;5044100;28;20231;-69
2024/01/11 03:59:38;;;;;;;5.77;4.03;;;;;-4.80;102574.00;;;;5036824;28;20298;-67
2024/01/11 04:02:24;;;;;;;4.97;3.47;;;;;-4.90;102575.00;;;;5030115;28;20236;-68
2024/01/11 04:05:12;;;;;;;6.87;4.27;;;;;-5.00;102582.00;;;;5036691;28;20696;-67
2024/01/11 04:07:58;;;;;;;5.93;4.10;;;;;-5.10;102577.00;;;;5039532;28;20264;-69
2024/01/11 04:10:44;;;;;;;9.47;5.17;;;;;-5.10;102583.00;;;;5039541;28;20339;-68
2024/01/11 04:13:31;;;;;;;3.80;3.33;;;;;-5.00;102571.00;;;;5043980;28;20434;-69
2024/01/11 04:16:17;;;;;;;6.47;5.30;;;;;-5.10;102574.00;;;;5043390;28;20293;-67
2024/01/11 04:19:03;;;;;;;5.17;3.83;;;;;-5.10;102593.00;;;;5032650;28;20664;-68
2024/01/11 04:21:52;;;;;;;6.17;4.17;;;;;-5.20;102588.00;;;;5038788;28;20236;-67
2024/01/11 04:24:38;;;;;;;4.93;4.17;;;;;-5.10;102584.00;;;;5038763;28;20781;-69
2024/01/11 04:27:25;;;;;;;8.23;5.03;;;;;-5.20;102605.00;;;;5036964;28;20256;-69
2024/01/11 04:30:11;;;;;;;8.20;5.70;;;;;-5.30;102619.00;;;;5038650;28;20283;-69
2024/01/11 04:32:58;;;;;;;5.63;3.73;;;;;-5.30;102625.00;;;;5036418;28;20240;-67
2024/01/11 04:35:44;;;;;;;6.17;4.40;;;;;-5.30;102635.00;;;;5039054;28;20295;-68
2024/01/11 04:38:32;;;;;;;10.43;4.60;;;;;-5.30;102630.00;;;;5039522;28;20287;-64
2024/01/11 04:41:18;;;;;;;5.27;3.93;;;;;-5.30;102610.00;;;;5034789;28;20259;-67
2024/01/11 04:44:05;;;;;;;4.60;4.13;;;;;-5.10;102627.00;;;;5042201;28;20314;-67
2024/01/11 04:46:51;;;;;;;7.77;5.33;;;;;-5.20;102622.00;;;;5043408;28;20240;-69
2024/01/11 04:49:39;;;;;;;6.77;4.77;;;;;-5.30;102622.00;;;;5038965;28;20240;-70
2024/01/11 04:52:25;;;;;;;3.50;3.30;;;;;-5.30;102643.00;;;;5045341;28;20274;-70
2024/01/11 04:55:13;;;;;;;11.30;5.50;;;;;-5.30;102638.00;;;;5047000;28;20224;-68
2024/01/11 04:57:59;;;;;;;3.30;3.10;;;;;-5.30;102641.00;;;;5037258;28;20317;-69
2024/01/11 05:00:45;;;;;;;6.53;3.53;;;;;-5.20;102641.00;;;;5041472;28;20809;-69
2024/01/11 05:03:32;;;;;;;4.30;3.90;;;;;-5.10;102642.00;;;;5047268;28;20260;-70
2024/01/11 05:06:19;;;;;;;5.17;3.93;;;;;-5.20;102645.00;;;;5046193;28;20359;-66
2024/01/11 05:09:06;;;;;;;4.40;4.00;;;;;-5.30;102648.00;;;;5041520;28;20339;-68
2024/01/11 05:11:54;;;;;;;5.80;4.97;;;;;-5.20;102647.00;;;;5046742;28;20283;-69
2024/01/11 05:14:41;;;;;;;3.73;3.43;;;;;-5.10;102640.00;;;;5041216;28;20255;-67
2024/01/11 05:17:27;;;;;;;3.80;3.47;;;;;-5.10;102647.00;;;;5041620;28;20768;-67
2024/01/11 05:20:13;;;;;;;7.63;4.17;;;;;-5.00;102634.00;;;;5038004;28;21033;-70
2024/01/11 05:23:01;;;;;;;8.33;3.90;;;;;-5.20;102642.00;;;;5038232;28;20221;-68
2024/01/11 05:25:47;;;;;;;8.90;5.13;;;;;-5.10;102641.00;;;;5034692;28;20333;-69
2024/01/11 05:28:35;;;;;;;2.60;2.40;;;;;-5.10;102644.00;;;;5032761;28;20228;-70
2024/01/11 05:31:22;;;;;;;6.40;4.80;;;;;-5.20;102625.00;;;;5038379;28;20894;-69
2024/01/11 05:34:11;;;;;;;3.43;3.13;;;;;-5.30;102635.00;;;;5044749;28;20236;-69
2024/01/11 05:36:58;;;;;;;4.17;3.73;;;;;-5.30;102657.00;;;;5041241;28;20225;-68
2024/01/11 05:39:46;;;;;;;7.63;4.73;;;;;-5.40;102648.00;;;;5036053;28;20241;-67
2024/01/11 05:42:32;;;;;;;5.00;4.33;;;;;-5.20;102642.00;;;;5046414;28;20628;-67
2024/01/11 05:45:20;;;;;;;3.63;3.23;;;;;-5.30;102620.00;;;;5041952;28;20290;-69
2024/01/11 05:48:14;;;;;;;12.93;3.67;;;;;-5.30;102634.00;;;;5042375;28;20254;-68
2024/01/11 05:51:01;;;;;;;10.17;4.37;;;;;-5.20;102628.00;;;;5038865;28;20604;-69
2024/01/11 05:53:47;;;;;;;5.83;5.27;;;;;-5.30;102616.00;;;;5046935;28;20355;-69
2024/01/11 05:56:34;;;;;;;5.00;4.47;;;;;-5.30;102617.00;;;;5040006;28;20221;-67
2024/01/11 05:59:20;;;;;;;12.27;4.83;;;;;-5.40;102618.00;;;;5041467;28;20248;-69
2024/01/11 06:02:07;;;;;;;6.53;3.47;;;;;-5.40;102619.00;;;;5042846;28;20727;-68
2024/01/11 06:04:54;;;;;;;6.17;4.13;;;;;-5.40;102629.00;;;;5034910;28;20284;-68
2024/01/11 06:07:40;;;;;;;4.67;4.03;;;;;-5.50;102615.00;;;;5038829;28;20599;-68
2024/01/11 06:10:26;;;;;;;7.20;6.07;;;;;-5.40;102622.00;;;;5039478;28;20295;-68
2024/01/11 06:13:13;;;;;;;4.10;3.80;;;;;-5.50;102638.00;;;;5039518;28;20303;-68
2024/01/11 06:15:59;;;;;;;6.67;4.17;;;;;-5.50;102650.00;;;;5041155;28;20636;-69
2024/01/11 06:18:47;;;;;;;4.43;3.97;;;;;-5.60;102661.00;;;;5039640;28;20310;-67
2024/01/11 06:21:33;;;;;;;12.67;4.57;;;;;-5.60;102667.00;;;;5039625;28;20367;-68
2024/01/11 06:24:19;;;;;;;9.63;6.43;;;;;-5.60;102679.00;;;;5045538;28;20224;-68
2024/01/11 06:27:05;;;;;;;7.37;4.20;;;;;-5.70;102685.00;;;;5039275;28;20327;-68
2024/01/11 06:29:52;;;;;;;6.80;2.97;;;;;-5.50;102670.00;;;;5044898;28;20232;-68
2024/01/11 06:32:38;;;;;;;8.50;4.87;;;;;-5.60;102656.00;;;;5036232;28;20725;-68
2024/01/11 06:35:26;;;;;;;2.43;2.23;;;;;-5.60;102666.00;;;;5037335;28;20228;-67
2024/01/11 06:38:13;;;;;;;2.07;1.97;;;;;-5.60;102657.00;;;;5041347;28;20239;-69
2024/01/11 06:40:59;;;;;;;16.30;5.00;;;;;-5.60;102665.00;;;;5034904;28;20245;-70
2024/01/11 06:43:45;;;;;;;5.03;3.57;;;;;-5.60;102653.00;;;;5044398;28;20310;-69
2024/01/11 06:46:31;;;;;;;4.00;3.33;;;;;-5.60;102660.00;;;;5039277;28;20228;-69
2024/01/11 06:49:18;;;;;;;6.13;4.00;;;;;-5.60;102664.00;;;;5045268;28;20355;-69
2024/01/11 06:52:06;;;;;;;3.73;3.37;;;;;-5.60;102665.00;;;;5042505;28;20229;-70
2024/01/11 06:54:53;;;;;;;6.83;4.03;;;;;-5.70;102681.00;;;;5040224;28;20288;-70
2024/01/11 06:57:39;;;;;;;2.67;2.47;;;;;-5.60;102692.00;;;;5038127;28;20355;-68
2024/01/11 07:00:25;;;;;;;3.40;3.13;;;;;-5.50;102684.00;;;;5037173;28;20628;-70
2024/01/11 07:03:12;;;;;;;3.80;3.50;;;;;-5.50;102698.00;;;;5042920;28;20231;-70
2024/01/11 07:05:58;;;;;;;8.97;4.13;;;;;-5.60;102706.00;;;;5043399;28;20267;-69
2024/01/11 07:08:46;;;;;;;7.17;3.27;;;;;-5.60;102700.00;;;;5031936;28;20236;-69
2024/01/11 07:11:33;;;;;;;5.23;4.63;;;;;-5.50;102700.00;;;;5036160;28;20236;-70
2024/01/11 07:14:19;;;;;;;4.77;4.37;;;;;-5.40;102692.00;;;;5033276;28;20271;-71
2024/01/11 07:17:05;;;;;;;5.87;3.67;;;;;-5.30;102683.00;;;;5038869;28;20949;-69
2024/01/11 07:19:52;;;;;;;7.90;3.97;;;;;-5.30;102677.00;;;;5040962;28;20294;-71
2024/01/11 07:22:38;;;;;;;6.60;4.30;;;;;-5.30;102679.00;;;;5037661;28;20236;-69
2024/01/11 07:25:30;;;;;;;11.00;3.57;;;;;-5.30;102684.00;;;;5038513;28;20797;-69
2024/01/11 07:28:17;;;;;;;10.20;3.50;;;;;-5.30;102685.00;;;;5040794;28;20236;-69
2024/01/11 07:31:03;;;;;;;3.43;2.87;;;;;-5.40;102691.00;;;;5030067;28;20244;-70
2024/01/11 07:33:50;;;;;;;13.30;5.27;;;;;-5.60;102684.00;;;;5035358;28;20233;-71
2024/01/11 07:36:37;;;;;;;4.57;4.17;;;;;-5.50;102685.00;;;;5042157;28;20236;-69
2024/01/11 07:39:24;;;;;;;4.63;4.13;;;;;-5.50;102677.00;;;;5037204;28;20391;-69
2024/01/11 07:42:11;;;;;;;4.37;3.90;;;;;-5.40;102672.00;;;;5036337;28;20249;-69
2024/01/11 07:44:58;;;;;;;7.20;5.40;;;;;-5.40;102675.00;;;;5024863;28;20261;-70
2024/01/11 07:47:44;;;;;;;10.40;5.43;;;;;-5.40;102679.00;;;;5027948;28;20229;-70
2024/01/11 07:50:30;;;;;;;5.80;4.23;;;;;-5.40;102664.00;;;;5036153;28;20232;-71
2024/01/11 07:53:17;;;;;;;6.73;4.60;;;;;-5.50;102660.00;;;;5035995;28;20229;-70
2024/01/11 07:56:03;;;;;;;3.97;3.67;;;;;-5.50;102669.00;;;;5036778;28;20240;-71
2024/01/11 07:58:51;;;;;;;4.80;3.57;;;;;-5.40;102691.00;;;;5038619;28;20248;-71
2024/01/11 08:01:37;;;;;;;11.90;6.07;;;;;-5.50;102700.00;;;;5041723;28;20236;-67
2024/01/11 08:04:23;;;;;;;8.13;4.57;;;;;-5.40;102705.00;;;;5037425;28;20237;-71
2024/01/11 08:07:09;;;;;;;7.90;5.40;;;;;-5.40;102697.00;;;;5039678;28;20232;-68
2024/01/11 08:09:56;;;;;;;4.43;2.97;;;;;-5.30;102700.00;;;;5038617;28;20733;-69
2024/01/11 08:12:42;;;;;;;3.23;2.90;;;;;-5.20;102692.00;;;;5036886;28;20244;-71
2024/01/11 08:15:29;;;;;;;4.83;3.97;;;;;-5.10;102687.00;;;;5041604;28;20224;-70
2024/01/11 08:18:15;;;;;;;8.80;4.63;;;;;-5.10;102683.00;;;;5033753;28;20257;-66
2024/01/11 08:21:02;;;;;;;6.37;4.40;;;;;-5.10;102695.00;;;;5035821;28;20229;-70
2024/01/11 08:23:49;;;;;;;12.20;5.30;;;;;-5.10;102701.00;;;;5038931;28;20417;-70
2024/01/11 08:26:36;;;;;;;7.27;4.37;;;;;-5.00;102716.00;;;;5046216;28;20232;-66
2024/01/11 08:29:22;;;;;;;5.40;4.40;;;;;-5.00;102713.00;;;;5041350;28;20236;-71
2024/01/11 08:32:10;;;;;;;4.43;4.03;;;;;-5.00;102728.00;;;;5037186;28;20743;-68
2024/01/11 08:35:11;;;;;;;6.20;5.53;;;;;-5.10;102731.00;;;;5032092;28;20255;-68
2024/01/11 08:37:58;;;;;;;8.70;5.73;;;;;-4.90;102739.00;;;;5043304;28;20335;-71
2024/01/11 08:40:44;;;;;;;4.30;3.90;;;;;-4.80;102732.00;;;;5039820;28;20228;-70
2024/01/11 08:43:31;;;;;;;6.00;4.73;;;;;-4.80;102727.00;;;;5045476;28;20234;-68
2024/01/11 08:46:24;;;;;;;9.27;4.93;;;;;-4.60;102729.00;;;;5039000;28;20723;-68
2024/01/11 08:49:12;;;;;;;8.30;5.10;;;;;-4.60;102733.00;;;;5041623;28;20247;-70
2024/01/11 08:51:58;;;;;;;8.97;5.47;;;;;-4.60;102743.00;;;;5041466;28;20228;-68
2024/01/11 08:54:45;;;;;;;8.20;5.83;;;;;-4.60;102737.00;;;;5041203;28;20328;-70
2024/01/11 08:57:31;;;;;;;8.27;6.00;;;;;-4.40;102759.00;;;;5035059;28;20237;-68
2024/01/11 09:00:18;;;;;;;10.40;6.33;;;;;-4.30;102742.00;;;;5038528;28;20229;-69
2024/01/11 09:03:05;;;;;;;4.80;4.40;;;;;-4.30;102735.00;;;;5043308;28;20913;-69
2024/01/11 09:05:56;;;;;;;5.10;4.13;;;;;-4.10;102724.00;;;;5041432;28;20713;-69
2024/01/11 09:08:43;;;;;;;6.13;5.30;;;;;-4.00;102717.00;;;;5039624;28;21699;-70
2024/01/11 09:11:29;;;;;;;8.20;5.23;;;;;-4.00;102723.00;;;;5041128;28;20227;-66
2024/01/11 09:14:16;;;;;;;5.70;4.63;;;;;-3.90;102717.00;;;;5043472;28;20240;-72
2024/01/11 09:17:02;;;;;;;5.07;4.53;;;;;-3.80;102716.00;;;;5037928;28;20244;-72
2024/01/11 09:19:48;;;;;;;8.40;4.70;;;;;-3.80;102727.00;;;;5040046;28;20375;-70
2024/01/11 09:22:36;;;;;;;6.13;5.50;;;;;-3.70;102729.00;;;;5044021;28;20228;-69
2024/01/11 09:25:23;;;;;;;14.47;5.47;;;;;-3.70;102739.00;;;;5032109;28;20229;-73
2024/01/11 09:28:11;;;;;;;13.87;6.60;;;;;-3.50;102750.00;;;;5026175;28;20256;-72
2024/01/11 09:30:59;;;;;;;5.17;4.70;;;;;-3.40;102768.00;;;;5036704;28;20223;-71
2024/01/11 09:33:46;;;;;;;10.33;6.23;;;;;-3.30;102754.00;;;;5033531;28;20244;-73
2024/01/11 09:36:33;;;;;;;7.80;4.40;;;;;-3.30;102765.00;;;;5029455;28;20717;-72
2024/01/11 09:39:20;;;;;;;11.00;5.27;;;;;-3.20;102769.00;;;;5031432;28;20808;-71
2024/01/11 09:42:09;;;;;;;8.07;5.70;;;;;-3.10;102777.00;;;;5038144;28;20740;-71
2024/01/11 09:44:57;;;;;;;5.87;5.07;;;;;-3.00;102779.00;;;;5032750;28;20256;-67
2024/01/11 09:47:45;;;;;;;5.77;4.97;;;;;-2.90;102797.00;;;;5031965;28;20237;-71
2024/01/11 09:50:31;;;;;;;18.70;4.97;;;;;-2.80;102791.00;;;;5031361;28;20717;-74
2024/01/11 09:53:20;;;;;;;13.00;6.77;;;;;-2.60;102799.00;;;;5040298;28;20663;-68
2024/01/11 09:56:09;;;;;;;12.30;5.60;;;;;-2.60;102793.00;;;;5040356;28;20721;-70
2024/01/11 09:58:56;;;;;;;8.03;4.80;;;;;-2.50;102787.00;;;;5029916;28;20812;-69
2024/01/11 10:01:42;;;;;;;12.60;5.90;;;;;-2.40;102773.00;;;;5037765;28;20597;-70
2024/01/11 10:04:29;;;;;;;14.57;5.83;;;;;-2.20;102780.00;;;;5033644;28;20224;-70
2024/01/11 10:07:18;;;;;;;11.13;4.63;;;;;-2.20;102773.00;;;;5037214;28;20343;-69
2024/01/11 10:10:07;;;;;;;7.67;5.33;;;;;-2.00;102771.00;;;;5030342;28;20253;-69
2024/01/11 10:12:55;;;;;;;8.90;4.70;;;;;-1.90;102779.00;;;;5034276;28;20237;-71
2024/01/11 10:15:42;;;;;;;7.10;5.30;;;;;-1.90;102770.00;;;;5030894;28;20316;-70
2024/01/11 10:18:28;;;;;;;8.63;5.50;;;;;-1.90;102765.00;;;;5032144;28;20715;-70
2024/01/11 10:21:15;;;;;;;11.30;6.70;;;;;-1.80;102781.00;;;;5030419;28;20221;-69
2024/01/11 10:24:04;;;;;;;7.63;5.23;;;;;-1.70;102775.00;;;;5033189;28;20241;-66
2024/01/11 10:26:51;;;;;;;9.77;6.23;;;;;-1.60;102775.00;;;;5030674;28;20369;-73
2024/01/11 10:29:38;;;;;;;12.70;5.83;;;;;-1.60;102780.00;;;;5036535;28;20228;-72
2024/01/11 10:32:29;;;;;;;19.13;7.10;;;;;-1.60;102778.00;;;;5037899;28;20229;-68
2024/01/11 10:35:17;;;;;;;7.10;5.43;;;;;-1.60;102770.00;;;;5027962;28;20822;-74
2024/01/11 10:38:09;;;;;;;7.47;5.53;;;;;-1.60;102752.00;;;;5027553;28;20761;-71
2024/01/11 10:40:56;;;;;;;17.10;6.77;;;;;-1.40;102752.00;;;;5035445;28;20228;-71
2024/01/11 10:43:44;;;;;;;6.77;6.03;;;;;-1.30;102755.00;;;;5040371;28;20236;-71
2024/01/11 10:46:35;;;;;;;13.87;6.30;;;;;-1.20;102754.00;;;;5030459;28;20278;-69
2024/01/11 10:49:24;;;;;;;9.70;5.67;;;;;-1.20;102759.00;;;;5038633;28;20450;-71
2024/01/11 10:52:13;;;;;;;10.13;6.43;;;;;-1.10;102752.00;;;;5038406;28;20233;-69
2024/01/11 10:55:01;;;;;;;14.10;7.70;;;;;-0.90;102742.00;;;;5026734;28;20237;-68
2024/01/11 10:57:49;;;;;;;10.27;6.17;;;;;-0.70;102741.00;;;;5036396;28;20232;-70
2024/01/11 11:00:36;;;;;;;12.13;8.40;;;;;-0.70;102759.00;;;;5040592;28;20255;-71
2024/01/11 11:03:25;;;;;;;9.13;7.07;;;;;-0.60;102763.00;;;;5027724;28;20229;-71
2024/01/11 11:06:12;;;;;;;16.30;8.23;;;;;-0.60;102760.00;;;;5040555;28;20236;-70
2024/01/11 11:09:00;;;;;;;8.30;5.60;;;;;-0.50;102771.00;;;;5033364;28;20722;-74
2024/01/11 11:11:46;;;;;;;9.50;5.50;;;;;-0.50;102772.00;;;;5036877;28;20241;-71
2024/01/11 11:14:35;;;;;;;12.00;5.83;;;;;-0.30;102773.00;;;;5034584;28;20321;-68
2024/01/11 11:17:22;;;;;;;10.57;7.07;;;;;-0.30;102786.00;;;;5039987;28;20231;-69
2024/01/11 11:20:12;;;;;;;15.57;7.30;;;;;-0.10;102766.00;;;;5040028;28;20609;-69
2024/01/11 11:23:05;;;;;;;12.43;7.33;;;;;0.00;102773.00;;;;5039485;28;20356;-71
2024/01/11 11:25:55;;;;;;;8.60;5.83;;;;;0.10;102770.00;;;;5039092;28;20248;-70
2024/01/11 11:28:41;;;;;;;10.87;6.30;;;;;0.10;102756.00;;;;5033496;28;20237;-69
2024/01/11 11:31:38;;;;;;;10.30;6.33;;;;;0.30;102756.00;;;;5040369;28;20256;-72
2024/01/11 11:34:44;;;;;;;7.47;5.23;;;;;0.30;102751.00;;;;5026039;28;20303;-69
2024/01/11 11:37:32;;;;;;;7.23;5.00;;;;;0.40;102734.00;;;;5041600;28;20609;-71
2024/01/11 11:40:19;;;;;;;11.67;7.43;;;;;0.60;102743.00;;;;5037335;28;20700;-72
2024/01/11 11:43:05;;;;;;;11.50;6.33;;;;;0.70;102746.00;;;;5030756;28;20236;-73
2024/01/11 11:45:53;;;;;;;13.63;7.70;;;;;0.80;102751.00;;;;5042685;28;20303;-69
2024/01/11 11:48:49;;;;;;;17.73;7.73;;;;;1.00;102754.00;;;;5034583;28;20915;-70
2024/01/11 11:51:36;;;;;;;11.07;5.67;;;;;1.10;102746.00;;;;5042757;28;20244;-77
2024/01/11 11:54:24;;;;;;;13.00;5.43;;;;;1.20;102745.00;;;;5038721;28;20268;-74
2024/01/11 11:57:11;;;;;;;7.57;4.87;;;;;1.10;102751.00;;;;5039148;28;20233;-69
2024/01/11 11:59:59;;;;;;;9.87;5.87;;;;;1.10;102746.00;;;;5044284;28;20228;-73
2024/01/11 12:02:47;;;;;;;8.53;5.47;;;;;1.10;102742.00;;;;5041066;28;20242;-71
2024/01/11 12:05:34;;;;;;;9.30;5.20;;;;;1.10;102757.00;;;;5035800;28;20324;-72
2024/01/11 12:08:20;;;;;;;10.93;4.73;;;;;1.30;102757.00;;;;5044404;28;20660;-70
2024/01/11 12:11:07;;;;;;;7.67;4.70;;;;;1.40;102770.00;;;;5043561;28;20756;-70
2024/01/11 12:13:57;;;;;;;9.43;4.90;;;;;1.30;102764.00;;;;5042334;28;20229;-72
2024/01/11 12:16:43;;;;;;;15.43;6.90;;;;;1.30;102753.00;;;;5034751;28;20366;-69
2024/01/11 12:19:30;;;;;;;8.53;4.67;;;;;1.30;102759.00;;;;5039547;28;20232;-70
2024/01/11 12:22:19;;;;;;;13.97;5.97;;;;;1.40;102761.00;;;;5032549;28;20306;-70
2024/01/11 12:25:06;;;;;;;9.70;6.73;;;;;1.50;102756.00;;;;5034673;28;20747;-71
2024/01/11 12:27:54;;;;;;;9.33;6.23;;;;;1.50;102758.00;;;;5042725;28;20238;-68
2024/01/11 12:30:40;;;;;;;11.43;6.07;;;;;1.60;102762.00;;;;5037156;28;20226;-70
2024/01/11 12:33:27;;;;;;;11.90;4.97;;;;;1.50;102759.00;;;;5042433;28;20311;-70
2024/01/11 12:36:15;;;;;;;7.57;4.30;;;;;1.30;102761.00;;;;5038043;28;20241;-69
2024/01/11 12:39:03;;;;;;;10.40;4.40;;;;;1.20;102751.00;;;;5032923;28;20226;-72
2024/01/11 12:41:51;;;;;;;7.57;4.37;;;;;1.30;102751.00;;;;5036706;28;20236;-69
2024/01/11 12:44:40;;;;;;;8.57;4.27;;;;;1.10;102746.00;;;;5039885;28;20303;-71
2024/01/11 12:47:27;;;;;;;6.83;4.03;;;;;1.10;102742.00;;;;5036916;28;20723;-71
2024/01/11 12:50:13;;;;;;;10.27;4.40;;;;;1.20;102758.00;;;;5042765;28;20228;-70
2024/01/11 12:53:08;;;;;;;8.10;4.03;;;;;1.20;102753.00;;;;5038178;28;20229;-67
2024/01/11 12:56:05;;;;;;;6.67;3.63;;;;;1.20;102743.00;;;;5043438;28;20234;-71
2024/01/11 12:58:51;;;;;;;6.17;3.50;;;;;0.90;102746.00;;;;5042279;28;20246;-67
2024/01/11 13:01:40;;;;;;;4.40;2.70;;;;;0.90;102754.00;;;;5034290;28;20226;-70
2024/01/11 13:04:26;;;;;;;3.33;3.00;;;;;1.00;102754.00;;;;5034486;28;20315;-71
2024/01/11 13:07:13;;;;;;;4.87;2.90;;;;;1.00;102745.00;;;;5034393;28;20238;-71
2024/01/11 13:09:59;;;;;;;5.03;2.17;;;;;1.00;102755.00;;;;5042507;28;20229;-69
2024/01/11 13:12:46;;;;;;;3.77;2.17;;;;;1.10;102754.00;;;;5040325;28;20238;-67
2024/01/11 13:15:39;;;;;;;2.27;1.53;;;;;1.10;102756.00;;;;5036825;28;20246;-71
2024/01/11 13:18:27;;;;;;;1.40;1.30;;;;;1.10;102755.00;;;;5041664;28;20312;-68
2024/01/11 13:21:13;;;;;;;2.17;1.97;;;;;1.00;102743.00;;;;5042931;28;20320;-70
2024/01/11 13:24:00;;;;;;;2.40;1.80;;;;;0.90;102749.00;;;;5043485;28;20287;-70
2024/01/11 13:26:46;;;;;;;2.20;2.00;;;;;0.90;102748.00;;;;5044461;28;20233;-70
2024/01/11 13:29:32;;;;;;;3.83;2.30;;;;;0.90;102740.00;;;;5042986;28;20300;-70
2024/01/11 13:32:22;;;;;;;2.80;1.73;;;;;0.80;102750.00;;;;5044588;28;20232;-70
2024/01/11 13:35:09;;;;;;;1.70;1.60;;;;;0.90;102740.00;;;;5039937;28;20937;-71
2024/01/11 13:37:55;;;;;;;1.97;1.80;;;;;0.90;102747.00;;;;5041779;28;20366;-67
2024/01/11 13:40:43;;;;;;;2.53;2.10;;;;;0.90;102729.00;;;;5038740;28;20236;-68
2024/01/11 13:43:29;;;;;;;3.77;2.60;;;;;0.90;102734.00;;;;5043938;28;20357;-69
2024/01/11 13:46:19;;;;;;;2.07;1.87;;;;;1.00;102722.00;;;;5041015;28;20249;-69